sensor_id;sensor_type;location;lat;lon;timestamp;pressure;altitude;pressure_sealevel;temperature;humidity
73151;BME280;61354;50.758;6.106;2023-08-08T00:01:03;99163.22;;;12.88;100.00
73151;BME280;61354;50.758;6.106;2023-08-08T00:03:28;99173.19;;;12.89;100.00
73151;BME280;61354;50.758;6.106;2023-08-08T00:05:54;99170.31;;;12.82;100.00
73151;BME280;61354;50.758;6.106;2023-08-08T00:08:19;99165.16;;;12.84;100.00
73151;BME280;61354;50.758;6.106;2023-08-08T00:10:45;99166.34;;;12.83;100.00
73151;BME280;61354;50.758;6.106;2023-08-08T00:13:11;99163.50;;;12.79;100.00
73151;BME280;61354;50.758;6.106;2023-08-08T00:15:37;99165.91;;;12.81;100.00
73151;BME280;61354;50.758;6.106;2023-08-08T00:18:03;99155.88;;;12.76;100.00
73151;BME280;61354;50.758;6.106;2023-08-08T00:20:28;99158.16;;;12.71;100.00
73151;BME280;61354;50.758;6.106;2023-08-08T00:22:54;99157.44;;;12.74;100.00
73151;BME280;61354;50.758;6.106;2023-08-08T00:25:19;99162.13;;;12.69;100.00
73151;BME280;61354;50.758;6.106;2023-08-08T00:27:45;99158.16;;;12.71;100.00
73151;BME280;61354;50.758;6.106;2023-08-08T00:30:12;99152.59;;;12.71;100.00
73151;BME280;61354;50.758;6.106;2023-08-08T00:32:40;99154.84;;;12.61;100.00
73151;BME280;61354;50.758;6.106;2023-08-08T00:35:06;99148.81;;;12.59;100.00
73151;BME280;61354;50.758;6.106;2023-08-08T00:37:32;99150.78;;;12.59;100.00
73151;BME280;61354;50.758;6.106;2023-08-08T00:39:57;99148.81;;;12.59;100.00
73151;BME280;61354;50.758;6.106;2023-08-08T00:42:23;99147.59;;;12.57;100.00
73151;BME280;61354;50.758;6.106;2023-08-08T00:44:49;99142.03;;;12.57;100.00
73151;BME280;61354;50.758;6.106;2023-08-08T00:47:14;99131.22;;;12.55;100.00
73151;BME280;61354;50.758;6.106;2023-08-08T00:49:40;99125.25;;;12.53;100.00
73151;BME280;61354;50.758;6.106;2023-08-08T00:52:06;99128.38;;;12.52;100.00
73151;BME280;61354;50.758;6.106;2023-08-08T00:54:32;99113.66;;;12.51;100.00
73151;BME280;61354;50.758;6.106;2023-08-08T00:56:58;99123.59;;;12.52;100.00
73151;BME280;61354;50.758;6.106;2023-08-08T00:59:24;99117.41;;;12.39;100.00
73151;BME280;61354;50.758;6.106;2023-08-08T01:01:49;99113.84;;;12.39;100.00
73151;BME280;61354;50.758;6.106;2023-08-08T01:04:16;99113.91;;;12.42;100.00
73151;BME280;61354;50.758;6.106;2023-08-08T01:06:57;99122.38;;;12.50;100.00
73151;BME280;61354;50.758;6.106;2023-08-08T01:09:30;99127.09;;;12.46;100.00
73151;BME280;61354;50.758;6.106;2023-08-08T01:11:59;99117.81;;;12.38;100.00
73151;BME280;61354;50.758;6.106;2023-08-08T01:14:26;99122.13;;;12.35;100.00
73151;BME280;61354;50.758;6.106;2023-08-08T01:16:55;99112.97;;;12.35;100.00
73151;BME280;61354;50.758;6.106;2023-08-08T01:19:32;99112.03;;;12.27;100.00
73151;BME280;61354;50.758;6.106;2023-08-08T01:22:05;99110.50;;;12.30;100.00
73151;BME280;61354;50.758;6.106;2023-08-08T01:24:32;99109.63;;;12.26;100.00
73151;BME280;61354;50.758;6.106;2023-08-08T01:27:03;99103.63;;;12.24;100.00
73151;BME280;61354;50.758;6.106;2023-08-08T01:29:28;99102.75;;;12.19;100.00
73151;BME280;61354;50.758;6.106;2023-08-08T01:31:54;99102.47;;;12.25;100.00
73151;BME280;61354;50.758;6.106;2023-08-08T01:34:20;99105.56;;;12.19;100.00
73151;BME280;61354;50.758;6.106;2023-08-08T01:36:51;99106.78;;;12.22;100.00
73151;BME280;61354;50.758;6.106;2023-08-08T01:39:22;99101.94;;;12.19;100.00
73151;BME280;61354;50.758;6.106;2023-08-08T01:41:50;99108.69;;;12.18;100.00
73151;BME280;61354;50.758;6.106;2023-08-08T01:44:18;99107.94;;;12.21;100.00
73151;BME280;61354;50.758;6.106;2023-08-08T01:46:45;99109.13;;;12.20;100.00
73151;BME280;61354;50.758;6.106;2023-08-08T01:49:11;99111.03;;;12.16;100.00
73151;BME280;61354;50.758;6.106;2023-08-08T01:51:36;99117.34;;;12.13;100.00
73151;BME280;61354;50.758;6.106;2023-08-08T01:54:02;99116.09;;;12.10;100.00
73151;BME280;61354;50.758;6.106;2023-08-08T01:56:28;99115.53;;;12.01;100.00
73151;BME280;61354;50.758;6.106;2023-08-08T01:58:53;99122.84;;;12.09;100.00
73151;BME280;61354;50.758;6.106;2023-08-08T02:01:19;99117.97;;;12.03;100.00
73151;BME280;61354;50.758;6.106;2023-08-08T02:03:45;99107.47;;;11.96;100.00
73151;BME280;61354;50.758;6.106;2023-08-08T02:06:10;99109.88;;;11.98;100.00
73151;BME280;61354;50.758;6.106;2023-08-08T02:08:36;99105.88;;;11.95;100.00
73151;BME280;61354;50.758;6.106;2023-08-08T02:11:01;99105.06;;;11.94;100.00
73151;BME280;61354;50.758;6.106;2023-08-08T02:13:27;99102.50;;;11.86;100.00
73151;BME280;61354;50.758;6.106;2023-08-08T02:15:52;99100.97;;;11.88;100.00
73151;BME280;61354;50.758;6.106;2023-08-08T02:18:18;99101.69;;;11.85;100.00
73151;BME280;61354;50.758;6.106;2023-08-08T02:20:44;99090.84;;;11.80;100.00
73151;BME280;61354;50.758;6.106;2023-08-08T02:23:09;99093.63;;;11.80;100.00
73151;BME280;61354;50.758;6.106;2023-08-08T02:25:35;99092.13;;;11.83;100.00
73151;BME280;61354;50.758;6.106;2023-08-08T02:28:00;99086.38;;;11.76;100.00
73151;BME280;61354;50.758;6.106;2023-08-08T02:30:26;99092.38;;;11.78;100.00
73151;BME280;61354;50.758;6.106;2023-08-08T02:32:51;99094.41;;;11.81;100.00
73151;BME280;61354;50.758;6.106;2023-08-08T02:35:17;99096.78;;;11.79;100.00
73151;BME280;61354;50.758;6.106;2023-08-08T02:37:42;99093.47;;;11.73;100.00
73151;BME280;61354;50.758;6.106;2023-08-08T02:40:08;99087.88;;;11.69;100.00
73151;BME280;61354;50.758;6.106;2023-08-08T02:42:35;99098.16;;;11.69;100.00
73151;BME280;61354;50.758;6.106;2023-08-08T02:45:01;99086.22;;;11.68;100.00
73151;BME280;61354;50.758;6.106;2023-08-08T02:47:26;99086.97;;;11.65;100.00
73151;BME280;61354;50.758;6.106;2023-08-08T02:49:52;99083.31;;;11.61;100.00
73151;BME280;61354;50.758;6.106;2023-08-08T02:52:17;99078.91;;;11.60;100.00
73151;BME280;61354;50.758;6.106;2023-08-08T02:54:43;99083.75;;;11.63;100.00
73151;BME280;61354;50.758;6.106;2023-08-08T02:57:08;99074.81;;;11.54;100.00
73151;BME280;61354;50.758;6.106;2023-08-08T02:59:37;99070.22;;;11.62;100.00
73151;BME280;61354;50.758;6.106;2023-08-08T03:02:03;99073.66;;;11.55;100.00
73151;BME280;61354;50.758;6.106;2023-08-08T03:04:29;99072.84;;;11.55;100.00
73151;BME280;61354;50.758;6.106;2023-08-08T03:06:55;99078.09;;;11.60;100.00
73151;BME280;61354;50.758;6.106;2023-08-08T03:09:21;99070.88;;;11.55;100.00
73151;BME280;61354;50.758;6.106;2023-08-08T03:11:46;99076.44;;;11.55;100.00
73151;BME280;61354;50.758;6.106;2023-08-08T03:14:12;99060.84;;;11.51;100.00
73151;BME280;61354;50.758;6.106;2023-08-08T03:16:38;99062.03;;;11.50;100.00
73151;BME280;61354;50.758;6.106;2023-08-08T03:19:03;99059.59;;;11.48;100.00
73151;BME280;61354;50.758;6.106;2023-08-08T03:21:29;99062.03;;;11.50;100.00
73151;BME280;61354;50.758;6.106;2023-08-08T03:23:56;99061.56;;;11.48;100.00
73151;BME280;61354;50.758;6.106;2023-08-08T03:26:21;99065.22;;;11.52;100.00
73151;BME280;61354;50.758;6.106;2023-08-08T03:28:49;99064.56;;;11.58;100.00
73151;BME280;61354;50.758;6.106;2023-08-08T03:31:19;99060.69;;;11.63;100.00
73151;BME280;61354;50.758;6.106;2023-08-08T03:33:44;99067.22;;;11.70;100.00
73151;BME280;61354;50.758;6.106;2023-08-08T03:36:10;99060.03;;;11.69;100.00
73151;BME280;61354;50.758;6.106;2023-08-08T03:38:35;99064.13;;;11.76;100.00
73151;BME280;61354;50.758;6.106;2023-08-08T03:41:03;99053.00;;;11.76;100.00
73151;BME280;61354;50.758;6.106;2023-08-08T03:43:29;99048.72;;;11.82;100.00
73151;BME280;61354;50.758;6.106;2023-08-08T03:45:55;99057.97;;;11.86;100.00
73151;BME280;61354;50.758;6.106;2023-08-08T03:48:20;99053.41;;;11.78;100.00
73151;BME280;61354;50.758;6.106;2023-08-08T03:50:46;99049.91;;;11.81;100.00
73151;BME280;61354;50.758;6.106;2023-08-08T03:53:12;99044.72;;;11.79;100.00
73151;BME280;61354;50.758;6.106;2023-08-08T03:55:38;99050.63;;;11.78;100.00
73151;BME280;61354;50.758;6.106;2023-08-08T03:58:04;99055.34;;;11.74;100.00
73151;BME280;61354;50.758;6.106;2023-08-08T04:00:31;99053.88;;;11.80;100.00
73151;BME280;61354;50.758;6.106;2023-08-08T04:02:57;99054.78;;;11.84;100.00
73151;BME280;61354;50.758;6.106;2023-08-08T04:05:22;99050.72;;;11.81;100.00
73151;BME280;61354;50.758;6.106;2023-08-08T04:07:48;99046.13;;;11.89;100.00
73151;BME280;61354;50.758;6.106;2023-08-08T04:10:13;99049.34;;;11.91;100.00
73151;BME280;61354;50.758;6.106;2023-08-08T04:12:39;99052.94;;;11.91;100.00
73151;BME280;61354;50.758;6.106;2023-08-08T04:15:05;99047.88;;;11.97;100.00
73151;BME280;61354;50.758;6.106;2023-08-08T04:17:30;99046.50;;;11.87;100.00
73151;BME280;61354;50.758;6.106;2023-08-08T04:19:56;99044.53;;;11.88;100.00
73151;BME280;61354;50.758;6.106;2023-08-08T04:22:22;99041.72;;;11.88;100.00
73151;BME280;61354;50.758;6.106;2023-08-08T04:24:47;99042.16;;;11.90;100.00
73151;BME280;61354;50.758;6.106;2023-08-08T04:27:13;99039.69;;;11.85;100.00
73151;BME280;61354;50.758;6.106;2023-08-08T04:29:39;99059.00;;;11.97;100.00
73151;BME280;61354;50.758;6.106;2023-08-08T04:32:04;99055.78;;;11.95;100.00
73151;BME280;61354;50.758;6.106;2023-08-08T04:34:30;99052.25;;;11.98;100.00
73151;BME280;61354;50.758;6.106;2023-08-08T04:36:55;99052.69;;;12.00;100.00
73151;BME280;61354;50.758;6.106;2023-08-08T04:39:21;99053.88;;;11.99;100.00
73151;BME280;61354;50.758;6.106;2023-08-08T04:41:47;99049.84;;;11.97;100.00
73151;BME280;61354;50.758;6.106;2023-08-08T04:44:12;99044.78;;;12.02;100.00
73151;BME280;61354;50.758;6.106;2023-08-08T04:46:38;99044.78;;;12.02;100.00
73151;BME280;61354;50.758;6.106;2023-08-08T04:49:03;99049.44;;;11.94;100.00
73151;BME280;61354;50.758;6.106;2023-08-08T04:51:29;99036.00;;;12.00;100.00
73151;BME280;61354;50.758;6.106;2023-08-08T04:53:54;99042.44;;;12.04;100.00
73151;BME280;61354;50.758;6.106;2023-08-08T04:56:20;99032.16;;;12.08;100.00
73151;BME280;61354;50.758;6.106;2023-08-08T04:58:45;99027.16;;;11.94;100.00
73151;BME280;61354;50.758;6.106;2023-08-08T05:01:11;99025.19;;;11.95;100.00
73151;BME280;61354;50.758;6.106;2023-08-08T05:03:40;99026.41;;;11.98;100.00
73151;BME280;61354;50.758;6.106;2023-08-08T05:06:05;99028.84;;;11.99;100.00
73151;BME280;61354;50.758;6.106;2023-08-08T05:08:31;99031.09;;;11.93;100.00
73151;BME280;61354;50.758;6.106;2023-08-08T05:10:57;99022.41;;;11.95;100.00
73151;BME280;61354;50.758;6.106;2023-08-08T05:13:22;99031.91;;;11.94;100.00
73151;BME280;61354;50.758;6.106;2023-08-08T05:15:48;99033.63;;;12.02;100.00
73151;BME280;61354;50.758;6.106;2023-08-08T05:18:13;99034.41;;;11.99;100.00
73151;BME280;61354;50.758;6.106;2023-08-08T05:20:39;99042.38;;;12.24;100.00
73151;BME280;61354;50.758;6.106;2023-08-08T05:23:13;99030.81;;;12.22;100.00
73151;BME280;61354;50.758;6.106;2023-08-08T05:25:38;99024.06;;;12.23;100.00
73151;BME280;61354;50.758;6.106;2023-08-08T05:28:04;99027.28;;;12.25;100.00
73151;BME280;61354;50.758;6.106;2023-08-08T05:30:30;99025.78;;;12.31;100.00
73151;BME280;61354;50.758;6.106;2023-08-08T05:32:56;99034.19;;;12.34;100.00
73151;BME280;61354;50.758;6.106;2023-08-08T05:35:21;99022.47;;;12.48;100.00
73151;BME280;61354;50.758;6.106;2023-08-08T05:37:47;99035.25;;;12.49;100.00
73151;BME280;61354;50.758;6.106;2023-08-08T05:40:13;99025.84;;;12.57;100.00
73151;BME280;61354;50.758;6.106;2023-08-08T05:42:38;99029.94;;;12.67;100.00
73151;BME280;61354;50.758;6.106;2023-08-08T05:45:05;99027.44;;;12.58;100.00
73151;BME280;61354;50.758;6.106;2023-08-08T05:47:30;99028.34;;;12.66;100.00
73151;BME280;61354;50.758;6.106;2023-08-08T05:49:56;99029.78;;;12.56;100.00
73151;BME280;61354;50.758;6.106;2023-08-08T05:52:22;99039.44;;;12.62;100.00
73151;BME280;61354;50.758;6.106;2023-08-08T05:54:47;99028.56;;;12.54;100.00
73151;BME280;61354;50.758;6.106;2023-08-08T05:57:13;99039.13;;;12.67;100.00
73151;BME280;61354;50.758;6.106;2023-08-08T05:59:41;99041.91;;;12.67;100.00
73151;BME280;61354;50.758;6.106;2023-08-08T06:02:09;99039.56;;;12.69;100.00
73151;BME280;61354;50.758;6.106;2023-08-08T06:04:35;99041.16;;;12.71;100.00
73151;BME280;61354;50.758;6.106;2023-08-08T06:07:00;99046.84;;;12.78;100.00
73151;BME280;61354;50.758;6.106;2023-08-08T06:09:29;99041.69;;;12.80;100.00
73151;BME280;61354;50.758;6.106;2023-08-08T06:11:56;99035.31;;;12.79;100.00
73151;BME280;61354;50.758;6.106;2023-08-08T06:14:22;99034.19;;;12.84;100.00
73151;BME280;61354;50.758;6.106;2023-08-08T06:16:57;99050.16;;;12.87;100.00
73151;BME280;61354;50.758;6.106;2023-08-08T06:19:23;99051.03;;;12.91;100.00
73151;BME280;61354;50.758;6.106;2023-08-08T06:21:49;99051.44;;;12.93;100.00
73151;BME280;61354;50.758;6.106;2023-08-08T06:24:17;99057.44;;;12.95;100.00
73151;BME280;61354;50.758;6.106;2023-08-08T06:26:43;99051.03;;;12.91;100.00
73151;BME280;61354;50.758;6.106;2023-08-08T06:29:09;99050.34;;;13.01;100.00
73151;BME280;61354;50.758;6.106;2023-08-08T06:31:47;99055.19;;;13.04;100.00
73151;BME280;61354;50.758;6.106;2023-08-08T06:34:12;99047.97;;;13.00;100.00
73151;BME280;61354;50.758;6.106;2023-08-08T06:36:44;99057.88;;;12.97;100.00
73151;BME280;61354;50.758;6.106;2023-08-08T06:39:12;99045.22;;;13.03;100.00
73151;BME280;61354;50.758;6.106;2023-08-08T06:41:38;99042.50;;;13.07;100.00
73151;BME280;61354;50.758;6.106;2023-08-08T06:44:07;99049.22;;;13.06;100.00
73151;BME280;61354;50.758;6.106;2023-08-08T06:46:33;99046.94;;;13.11;100.00
73151;BME280;61354;50.758;6.106;2023-08-08T06:48:58;99050.97;;;13.17;100.00
73151;BME280;61354;50.758;6.106;2023-08-08T06:51:25;99052.59;;;13.18;100.00
73151;BME280;61354;50.758;6.106;2023-08-08T06:53:54;99052.31;;;13.24;100.00
73151;BME280;61354;50.758;6.106;2023-08-08T06:56:22;99054.06;;;13.35;100.00
73151;BME280;61354;50.758;6.106;2023-08-08T06:58:48;99056.50;;;13.40;100.00
73151;BME280;61354;50.758;6.106;2023-08-08T07:01:14;99053.34;;;13.42;100.00
73151;BME280;61354;50.758;6.106;2023-08-08T07:03:40;99045.47;;;13.51;100.00
73151;BME280;61354;50.758;6.106;2023-08-08T07:06:05;99031.91;;;13.50;100.00
73151;BME280;61354;50.758;6.106;2023-08-08T07:08:44;99038.75;;;13.56;100.00
73151;BME280;61354;50.758;6.106;2023-08-08T07:11:12;99042.78;;;13.58;100.00
73151;BME280;61354;50.758;6.106;2023-08-08T07:13:38;99042.94;;;13.73;100.00
73151;BME280;61354;50.758;6.106;2023-08-08T07:16:03;99045.81;;;13.80;100.00
73151;BME280;61354;50.758;6.106;2023-08-08T07:18:29;99052.97;;;13.77;100.00
73151;BME280;61354;50.758;6.106;2023-08-08T07:20:55;99053.03;;;13.84;100.00
73151;BME280;61354;50.758;6.106;2023-08-08T07:23:22;99036.31;;;13.88;100.00
73151;BME280;61354;50.758;6.106;2023-08-08T07:25:48;99046.72;;;13.91;100.00
73151;BME280;61354;50.758;6.106;2023-08-08T07:28:13;99047.25;;;14.04;100.00
73151;BME280;61354;50.758;6.106;2023-08-08T07:30:40;99050.00;;;14.00;100.00
73151;BME280;61354;50.758;6.106;2023-08-08T07:33:06;99047.97;;;13.97;100.00
73151;BME280;61354;50.758;6.106;2023-08-08T07:35:34;99040.66;;;14.19;100.00
73151;BME280;61354;50.758;6.106;2023-08-08T07:38:00;99047.81;;;14.20;100.00
73151;BME280;61354;50.758;6.106;2023-08-08T07:40:25;99044.22;;;14.20;100.00
73151;BME280;61354;50.758;6.106;2023-08-08T07:42:51;99054.97;;;14.17;100.00
73151;BME280;61354;50.758;6.106;2023-08-08T07:45:17;99043.88;;;14.25;100.00
73151;BME280;61354;50.758;6.106;2023-08-08T07:47:43;99048.25;;;14.26;100.00
73151;BME280;61354;50.758;6.106;2023-08-08T07:50:09;99054.50;;;14.49;100.00
73151;BME280;61354;50.758;6.106;2023-08-08T07:52:35;99036.25;;;14.62;100.00
73151;BME280;61354;50.758;6.106;2023-08-08T07:55:01;99047.41;;;14.62;100.00
73151;BME280;61354;50.758;6.106;2023-08-08T07:57:27;99046.69;;;14.69;100.00
73151;BME280;61354;50.758;6.106;2023-08-08T07:59:53;99037.13;;;14.74;100.00
73151;BME280;61354;50.758;6.106;2023-08-08T08:02:18;99038.00;;;14.85;100.00
73151;BME280;61354;50.758;6.106;2023-08-08T08:04:44;99039.63;;;14.86;100.00
73151;BME280;61354;50.758;6.106;2023-08-08T08:07:09;99042.78;;;14.81;100.00
73151;BME280;61354;50.758;6.106;2023-08-08T08:09:35;99040.31;;;14.76;100.00
73151;BME280;61354;50.758;6.106;2023-08-08T08:12:00;99037.19;;;14.81;100.00
73151;BME280;61354;50.758;6.106;2023-08-08T08:14:26;99050.81;;;14.89;100.00
73151;BME280;61354;50.758;6.106;2023-08-08T08:16:52;99043.97;;;14.83;100.00
73151;BME280;61354;50.758;6.106;2023-08-08T08:19:17;99040.41;;;14.86;100.00
73151;BME280;61354;50.758;6.106;2023-08-08T08:21:43;99038.47;;;14.94;100.00
73151;BME280;61354;50.758;6.106;2023-08-08T08:24:09;99039.72;;;15.04;100.00
73151;BME280;61354;50.758;6.106;2023-08-08T08:26:35;99038.97;;;15.10;100.00
73151;BME280;61354;50.758;6.106;2023-08-08T08:29:00;99038.22;;;15.21;100.00
73151;BME280;61354;50.758;6.106;2023-08-08T08:31:26;99033.06;;;15.30;100.00
73151;BME280;61354;50.758;6.106;2023-08-08T08:33:52;99040.75;;;15.44;100.00
73151;BME280;61354;50.758;6.106;2023-08-08T08:36:20;99043.13;;;15.45;100.00
73151;BME280;61354;50.758;6.106;2023-08-08T08:38:47;99052.69;;;15.37;96.00
73151;BME280;61354;50.758;6.106;2023-08-08T08:41:17;99039.06;;;15.32;96.67
73151;BME280;61354;50.758;6.106;2023-08-08T08:43:44;99041.09;;;15.35;96.58
73151;BME280;61354;50.758;6.106;2023-08-08T08:46:11;99044.72;;;15.46;96.99
73151;BME280;61354;50.758;6.106;2023-08-08T08:48:36;99042.31;;;15.41;94.71
73151;BME280;61354;50.758;6.106;2023-08-08T08:51:02;99043.06;;;15.27;94.12
73151;BME280;61354;50.758;6.106;2023-08-08T08:53:29;99048.28;;;15.36;95.74
73151;BME280;61354;50.758;6.106;2023-08-08T08:55:56;99053.47;;;15.37;95.60
73151;BME280;61354;50.758;6.106;2023-08-08T08:58:24;99069.47;;;15.37;93.88
73151;BME280;61354;50.758;6.106;2023-08-08T09:00:50;99056.72;;;15.47;93.78
73151;BME280;61354;50.758;6.106;2023-08-08T09:03:16;99053.13;;;15.46;94.60
73151;BME280;61354;50.758;6.106;2023-08-08T09:05:42;99044.38;;;15.51;95.88
73151;BME280;61354;50.758;6.106;2023-08-08T09:08:09;99051.94;;;15.47;93.41
73151;BME280;61354;50.758;6.106;2023-08-08T09:10:34;99050.78;;;15.55;94.94
73151;BME280;61354;50.758;6.106;2023-08-08T09:13:01;99054.38;;;15.52;94.31
73151;BME280;61354;50.758;6.106;2023-08-08T09:15:33;99038.41;;;15.60;94.34
73151;BME280;61354;50.758;6.106;2023-08-08T09:18:00;99050.84;;;15.66;93.93
73151;BME280;61354;50.758;6.106;2023-08-08T09:20:26;99049.25;;;15.65;93.76
73151;BME280;61354;50.758;6.106;2023-08-08T09:22:55;99056.50;;;15.84;95.26
73151;BME280;61354;50.758;6.106;2023-08-08T09:25:21;99050.84;;;15.70;93.03
73151;BME280;61354;50.758;6.106;2023-08-08T09:27:47;99051.28;;;15.79;93.38
73151;BME280;61354;50.758;6.106;2023-08-08T09:30:12;99058.94;;;15.89;94.12
73151;BME280;61354;50.758;6.106;2023-08-08T09:32:38;99047.31;;;15.87;92.31
73151;BME280;61354;50.758;6.106;2023-08-08T09:35:04;99046.50;;;15.83;90.60
73151;BME280;61354;50.758;6.106;2023-08-08T09:37:35;99049.69;;;15.78;90.55
73151;BME280;61354;50.758;6.106;2023-08-08T09:40:02;99056.94;;;15.89;91.61
73151;BME280;61354;50.758;6.106;2023-08-08T09:42:29;99056.97;;;15.97;91.98
73151;BME280;61354;50.758;6.106;2023-08-08T09:44:56;99054.97;;;15.97;91.66
73151;BME280;61354;50.758;6.106;2023-08-08T09:47:22;99054.16;;;15.97;90.65
73151;BME280;61354;50.758;6.106;2023-08-08T09:49:48;99052.16;;;15.97;91.29
73151;BME280;61354;50.758;6.106;2023-08-08T09:52:14;99052.16;;;15.97;90.90
73151;BME280;61354;50.758;6.106;2023-08-08T09:54:41;99048.16;;;15.98;89.30
73151;BME280;61354;50.758;6.106;2023-08-08T09:57:07;99045.31;;;15.87;88.89
73151;BME280;61354;50.758;6.106;2023-08-08T09:59:34;99031.75;;;15.97;89.40
73151;BME280;61354;50.758;6.106;2023-08-08T10:02:00;99047.38;;;16.01;88.84
73151;BME280;61354;50.758;6.106;2023-08-08T10:04:26;99048.19;;;16.05;89.22
73151;BME280;61354;50.758;6.106;2023-08-08T10:06:52;99047.38;;;16.12;88.41
73151;BME280;61354;50.758;6.106;2023-08-08T10:09:18;99045.75;;;16.07;86.56
73151;BME280;61354;50.758;6.106;2023-08-08T10:11:44;99051.75;;;16.13;84.79
73151;BME280;61354;50.758;6.106;2023-08-08T10:14:11;99057.00;;;16.29;86.98
73151;BME280;61354;50.758;6.106;2023-08-08T10:16:41;99057.00;;;16.22;86.28
73151;BME280;61354;50.758;6.106;2023-08-08T10:19:08;99053.78;;;16.34;86.25
73151;BME280;61354;50.758;6.106;2023-08-08T10:21:35;99049.81;;;16.42;86.47
73151;BME280;61354;50.758;6.106;2023-08-08T10:24:05;99051.44;;;16.43;84.50
73151;BME280;61354;50.758;6.106;2023-08-08T10:26:32;99056.22;;;16.53;84.39
73151;BME280;61354;50.758;6.106;2023-08-08T10:28:59;99053.03;;;16.69;85.90
73151;BME280;61354;50.758;6.106;2023-08-08T10:31:25;99049.03;;;16.63;83.50
73151;BME280;61354;50.758;6.106;2023-08-08T10:34:01;99035.41;;;16.47;84.60
73151;BME280;61354;50.758;6.106;2023-08-08T10:36:48;99044.22;;;16.63;84.23
73151;BME280;61354;50.758;6.106;2023-08-08T10:39:18;99048.22;;;16.70;83.25
73151;BME280;61354;50.758;6.106;2023-08-08T10:41:50;99049.44;;;16.47;81.55
73151;BME280;61354;50.758;6.106;2023-08-08T10:44:26;99051.00;;;16.62;83.13
73151;BME280;61354;50.758;6.106;2023-08-08T10:46:52;99049.03;;;16.74;83.41
73151;BME280;61354;50.758;6.106;2023-08-08T10:49:18;99029.78;;;16.72;82.05
73151;BME280;61354;50.758;6.106;2023-08-08T10:51:46;99046.66;;;16.76;81.71
73151;BME280;61354;50.758;6.106;2023-08-08T10:54:14;99047.00;;;16.67;84.20
73151;BME280;61354;50.758;6.106;2023-08-08T10:56:46;99040.22;;;16.64;83.88
73151;BME280;61354;50.758;6.106;2023-08-08T10:59:21;99044.63;;;16.51;83.67
73151;BME280;61354;50.758;6.106;2023-08-08T11:01:49;99033.41;;;16.51;84.24
73151;BME280;61354;50.758;6.106;2023-08-08T11:04:16;99037.41;;;16.43;82.96
73151;BME280;61354;50.758;6.106;2023-08-08T11:06:43;99041.81;;;16.40;81.19
73151;BME280;61354;50.758;6.106;2023-08-08T11:09:10;99036.19;;;16.30;80.25
73151;BME280;61354;50.758;6.106;2023-08-08T11:11:41;99035.00;;;16.31;80.73
73151;BME280;61354;50.758;6.106;2023-08-08T11:14:11;99036.97;;;16.34;81.16
73151;BME280;61354;50.758;6.106;2023-08-08T11:16:37;99040.19;;;16.25;79.94
73151;BME280;61354;50.758;6.106;2023-08-08T11:19:04;99033.78;;;16.10;79.78
73151;BME280;61354;50.758;6.106;2023-08-08T11:21:33;99038.59;;;16.13;80.11
73151;BME280;61354;50.758;6.106;2023-08-08T11:24:00;99040.56;;;16.16;81.53
73151;BME280;61354;50.758;6.106;2023-08-08T11:26:27;99028.97;;;16.11;80.01
73151;BME280;61354;50.758;6.106;2023-08-08T11:28:52;99024.56;;;16.06;79.18
73151;BME280;61354;50.758;6.106;2023-08-08T11:31:21;99024.16;;;15.97;78.80
73151;BME280;61354;50.758;6.106;2023-08-08T11:33:48;99022.53;;;16.00;80.38
73151;BME280;61354;50.758;6.106;2023-08-08T11:36:14;99028.16;;;16.03;82.65
73151;BME280;61354;50.758;6.106;2023-08-08T11:38:41;99017.72;;;16.00;82.22
73151;BME280;61354;50.758;6.106;2023-08-08T11:41:13;99019.72;;;15.96;80.54
73151;BME280;61354;50.758;6.106;2023-08-08T11:43:40;99024.13;;;15.90;82.85
73151;BME280;61354;50.758;6.106;2023-08-08T11:46:11;99011.31;;;15.89;80.59
73151;BME280;61354;50.758;6.106;2023-08-08T11:48:38;99017.75;;;15.93;80.88
73151;BME280;61354;50.758;6.106;2023-08-08T11:51:04;99016.13;;;15.92;81.71
73151;BME280;61354;50.758;6.106;2023-08-08T11:53:30;99022.94;;;15.95;81.75
73151;BME280;61354;50.758;6.106;2023-08-08T11:55:56;99019.34;;;16.05;80.52
73151;BME280;61354;50.758;6.106;2023-08-08T11:58:26;99024.16;;;16.11;79.47
73151;BME280;61354;50.758;6.106;2023-08-08T12:00:52;99013.75;;;16.08;78.49
73151;BME280;61354;50.758;6.106;2023-08-08T12:03:20;99017.75;;;16.07;78.81
73151;BME280;61354;50.758;6.106;2023-08-08T12:05:46;99023.78;;;16.09;78.88
73151;BME280;61354;50.758;6.106;2023-08-08T12:08:12;99023.38;;;16.11;79.59
73151;BME280;61354;50.758;6.106;2023-08-08T12:10:38;99014.56;;;16.02;79.83
73151;BME280;61354;50.758;6.106;2023-08-08T12:13:04;99028.53;;;15.91;79.20
73151;BME280;61354;50.758;6.106;2023-08-08T12:15:35;99020.13;;;15.91;80.97
73151;BME280;61354;50.758;6.106;2023-08-08T12:18:02;99019.72;;;15.85;80.74
73151;BME280;61354;50.758;6.106;2023-08-08T12:20:29;99022.50;;;15.85;82.33
73151;BME280;61354;50.758;6.106;2023-08-08T12:22:55;99021.72;;;15.85;81.79
73151;BME280;61354;50.758;6.106;2023-08-08T12:25:21;99012.91;;;15.86;83.02
73151;BME280;61354;50.758;6.106;2023-08-08T12:27:46;99015.34;;;16.02;81.68
73151;BME280;61354;50.758;6.106;2023-08-08T12:30:12;99016.19;;;16.13;82.78
73151;BME280;61354;50.758;6.106;2023-08-08T12:32:37;99016.16;;;16.21;81.03
73151;BME280;61354;50.758;6.106;2023-08-08T12:35:03;99013.78;;;16.26;81.18
73151;BME280;61354;50.758;6.106;2023-08-08T12:37:29;99015.38;;;16.45;82.31
73151;BME280;61354;50.758;6.106;2023-08-08T12:39:55;99014.19;;;16.39;80.47
73151;BME280;61354;50.758;6.106;2023-08-08T12:42:20;99019.41;;;16.55;80.89
73151;BME280;61354;50.758;6.106;2023-08-08T12:44:46;99012.97;;;16.58;81.58
73151;BME280;61354;50.758;6.106;2023-08-08T12:47:12;99012.59;;;16.59;80.99
73151;BME280;61354;50.758;6.106;2023-08-08T12:49:38;99011.38;;;16.68;82.04